Flagstaff Pulliam Airport Flagstaff US
ICAO: KFLG
IATA: FLG
Category: Medium
Scheduled Services: Yes

Elevation: 7014 ft
TransAlt. 18000 ft.

Airport Communications:
ATIS:125.8
ALBUQUERQUE CNTR:124.5
CTAF:134.55
GND:121.9
PRESCOTT RDO:122.3
TWR:134.55
UNICOM:122.95

KFLG Zoom In..

If you have problems with the map follow the link
https://www.worldairports.se/pages/airport.php?
ICAO=KFLG

Runways:

(A) RW 03 length 8800 ft width 150 ft
---- / hdg 27

(B) RW 21 length 8800 ft width 150 ft
ILS 110.50 / hdg 207

Location; KFLG
Day. 08 / Time. 17.18 Zulu
* Altimeter: 30.09
* Temperature: 04° c. 39.2°f.
* Wind from: 210° Speed 13 kn.
Dewpoint: 03° c.
Visibility: 10 Statute Miles.
Clouds: Broken 700 ft.
Clouds: Broken 1000 ft.
Clouds: Overcast 1600 ft.

KFLG 081718Z 21013KT 10SM BKN007 BKN010 OVC016 04/03 A3009 RMK AO2 T00440033


Wind From 210°
Speed 13 kn.

 
 
jpsmedia worldairports.se 2019   terms of use